YTBM weather

Tabulam Oval Helipad
New South Wales, Australia

Public forecast

Using degrees Celsius for public forecast. Weather courtesy of forecast.io.

Closest aviation weather report (METAR) to Tabulam Oval Helipad

Closest report is Casino Airport, 26.2 nm (48.6 km) E. Retrieved 2019/10/16 08:00 UTC (5 minutes ago):

YCAS 160800Z AUTO 02009KT //// // ////// 29/16 Q1008

Closest aviation forecast (TAF) to Tabulam Oval Helipad

Closest forecast is Gold Coast Airport, 65.9 nm (122.1 km) NE. Retrieved 2019/10/16 06:00 UTC (2 hours ago):

TAF YBCG 160519Z 1606/1706 01020KT 9999 FEW035 FM161200 35018KT 9999 FEW025 FM161500 34018KT 9999 SCT020 FM162100 34018KT 9999 FEW025 FM170200 01020KT 9999 FEW035 PROB30 TEMPO 1705/1706 VRB30G45KT 4000 TSRA SCT050CB